Time;durP1;ratioP1;P1;durP2;ratioP2;P2;SDS_P1;SDS_P2;PMS_P1;PMS_P2;Temp;Humidity;BMP_temperature;BMP_pressure;BME280_temperature;BME280_humidity;BME280_pressure;Samples;Min_cycle;Max_cycle;Signal;HPM_P1;HPM_P2
2023/08/07 00:01:07;;;;;;;3.00;1.90;;;13.10;98.00;;;;;;5030972;28;20468;-69
2023/08/07 00:03:35;;;;;;;2.43;1.60;;;13.00;98.00;;;;;;5030874;28;20937;-70
2023/08/07 00:06:04;;;;;;;4.73;1.70;;;13.10;98.00;;;;;;5030661;28;20513;-69
2023/08/07 00:08:33;;;;;;;2.07;1.67;;;13.10;98.00;;;;;;5015773;28;20493;-69
2023/08/07 00:11:10;;;;;;;3.00;1.70;;;13.10;98.00;;;;;;5023134;28;20516;-70
2023/08/07 00:13:38;;;;;;;2.20;1.90;;;13.20;98.00;;;;;;5030993;28;20449;-69
2023/08/07 00:16:05;;;;;;;2.40;1.80;;;13.20;98.00;;;;;;5030624;28;20949;-69
2023/08/07 00:18:32;;;;;;;2.17;1.80;;;13.20;98.00;;;;;;5030588;28;20461;-69
2023/08/07 00:20:59;;;;;;;1.87;1.47;;;13.20;98.00;;;;;;5030797;28;20464;-69
2023/08/07 00:23:27;;;;;;;1.70;1.40;;;13.20;98.00;;;;;;5030879;28;20874;-69
2023/08/07 00:25:56;;;;;;;2.37;1.80;;;13.10;98.00;;;;;;5030977;28;20461;-69
2023/08/07 00:28:23;;;;;;;3.47;1.80;;;13.10;98.00;;;;;;5030886;28;20487;-69
2023/08/07 00:30:50;;;;;;;2.13;1.70;;;13.10;98.00;;;;;;5030797;28;20872;-70
2023/08/07 00:33:17;;;;;;;4.97;1.90;;;13.10;98.00;;;;;;5030718;28;20449;-69
2023/08/07 00:35:45;;;;;;;3.63;1.77;;;13.10;98.00;;;;;;5030555;28;20454;-70
2023/08/07 00:38:12;;;;;;;2.90;1.83;;;13.20;98.00;;;;;;5013262;28;20536;-69
2023/08/07 00:40:39;;;;;;;6.40;2.00;;;13.00;98.00;;;;;;5030860;28;20452;-69
2023/08/07 00:43:08;;;;;;;3.33;2.03;;;13.00;98.00;;;;;;5030431;28;20495;-69
2023/08/07 00:45:38;;;;;;;2.00;1.50;;;13.00;98.00;;;;;;5030386;28;20511;-69
2023/08/07 00:48:06;;;;;;;2.73;1.83;;;13.00;98.00;;;;;;5030577;28;20487;-69
2023/08/07 00:50:34;;;;;;;2.37;1.90;;;13.10;98.00;;;;;;5030526;28;20486;-69
2023/08/07 00:53:01;;;;;;;1.77;1.60;;;13.10;98.00;;;;;;5022786;28;20712;-69
2023/08/07 00:55:29;;;;;;;3.20;1.57;;;13.10;98.00;;;;;;5030303;28;20967;-69
2023/08/07 00:57:56;;;;;;;2.23;1.73;;;13.00;98.00;;;;;;5030151;28;21038;-69
2023/08/07 01:00:26;;;;;;;2.97;1.80;;;13.00;98.00;;;;;;5030231;28;20488;-69
2023/08/07 01:02:56;;;;;;;2.23;1.60;;;12.90;98.00;;;;;;5030348;28;20468;-69
2023/08/07 01:05:25;;;;;;;1.83;1.70;;;13.00;98.00;;;;;;5034359;28;20453;-69
2023/08/07 01:07:54;;;;;;;12.97;1.80;;;13.10;98.00;;;;;;5034456;28;20874;-69
2023/08/07 01:10:28;;;;;;;1.70;1.50;;;13.10;98.00;;;;;;5034476;28;20959;-69
2023/08/07 01:13:04;;;;;;;2.93;2.00;;;13.10;98.00;;;;;;5034125;28;20458;-69
2023/08/07 01:15:34;;;;;;;5.20;2.13;;;13.10;98.00;;;;;;5030617;28;20457;-69
2023/08/07 01:18:01;;;;;;;5.83;1.90;;;13.10;98.00;;;;;;5033686;28;20454;-69
2023/08/07 01:20:28;;;;;;;2.60;1.97;;;13.10;98.00;;;;;;5033729;28;20458;-69
2023/08/07 01:22:57;;;;;;;2.87;1.90;;;13.00;98.00;;;;;;5033496;28;20460;-69
2023/08/07 01:25:24;;;;;;;2.70;1.80;;;13.10;98.00;;;;;;5016133;28;20479;-69
2023/08/07 01:27:57;;;;;;;3.00;1.77;;;13.10;98.00;;;;;;5033346;28;20515;-69
2023/08/07 01:30:30;;;;;;;3.27;1.70;;;13.10;98.00;;;;;;5033410;28;20463;-69
2023/08/07 01:33:05;;;;;;;2.70;1.57;;;13.10;98.00;;;;;;5025191;28;20453;-69
2023/08/07 01:35:37;;;;;;;2.67;1.77;;;13.10;98.00;;;;;;5016410;28;20454;-69
2023/08/07 01:38:15;;;;;;;2.77;1.37;;;13.20;98.00;;;;;;5033531;28;20465;-69
2023/08/07 01:40:43;;;;;;;3.07;1.70;;;13.20;98.00;;;;;;5031241;28;20463;-69
2023/08/07 01:43:11;;;;;;;3.27;2.00;;;13.20;98.00;;;;;;5033398;28;20461;-69
2023/08/07 01:45:38;;;;;;;2.30;1.70;;;13.10;98.00;;;;;;5033387;28;20458;-69
2023/08/07 01:48:05;;;;;;;2.93;1.90;;;13.10;98.00;;;;;;5032869;28;21020;-69
2023/08/07 01:50:32;;;;;;;3.10;1.83;;;13.20;98.00;;;;;;5015789;28;20446;-69
2023/08/07 01:53:02;;;;;;;3.67;1.87;;;13.20;98.00;;;;;;5032439;28;20449;-69
2023/08/07 01:55:31;;;;;;;2.03;1.50;;;13.30;98.00;;;;;;5033007;28;20931;-69
2023/08/07 01:57:58;;;;;;;2.40;1.73;;;13.30;98.00;;;;;;5032552;28;20470;-69
2023/08/07 02:00:25;;;;;;;3.63;2.00;;;13.40;98.00;;;;;;5033032;28;20454;-69
2023/08/07 02:02:52;;;;;;;2.03;1.80;;;13.40;98.00;;;;;;5032525;28;20461;-69
2023/08/07 02:05:19;;;;;;;1.93;1.50;;;13.40;98.00;;;;;;5015142;28;20629;-69
2023/08/07 02:07:47;;;;;;;4.10;1.70;;;13.40;98.00;;;;;;5032470;28;20463;-69
2023/08/07 02:10:14;;;;;;;2.10;1.80;;;13.40;98.00;;;;;;5014953;28;20597;-69
2023/08/07 02:12:42;;;;;;;2.83;1.90;;;13.40;98.00;;;;;;5032447;28;21018;-69
2023/08/07 02:15:10;;;;;;;2.87;2.17;;;13.40;98.00;;;;;;5032545;28;20461;-69
2023/08/07 02:17:38;;;;;;;2.90;1.73;;;13.30;98.00;;;;;;5032906;28;20834;-69
2023/08/07 02:20:07;;;;;;;4.33;1.87;;;13.30;98.00;;;;;;5032591;28;20860;-69
2023/08/07 02:22:34;;;;;;;1.90;1.53;;;13.30;98.00;;;;;;5032335;28;20955;-69
2023/08/07 02:25:02;;;;;;;3.33;1.80;;;13.30;98.00;;;;;;5032285;28;20463;-69
2023/08/07 02:27:29;;;;;;;1.70;1.50;;;13.30;98.00;;;;;;5032280;28;20458;-69
2023/08/07 02:29:59;;;;;;;2.70;1.80;;;13.30;98.00;;;;;;5032011;28;20488;-69
2023/08/07 02:32:26;;;;;;;3.87;2.00;;;13.40;98.00;;;;;;5032673;28;20982;-69
2023/08/07 02:34:53;;;;;;;2.27;1.60;;;13.40;98.00;;;;;;5032092;28;20457;-69
2023/08/07 02:37:20;;;;;;;1.70;1.60;;;13.40;98.00;;;;;;5032175;28;20886;-69
2023/08/07 02:39:47;;;;;;;5.13;1.90;;;13.40;98.00;;;;;;5032018;28;20461;-69
2023/08/07 02:42:17;;;;;;;4.70;1.73;;;13.40;98.00;;;;;;5026354;28;20938;-69
2023/08/07 02:44:44;;;;;;;4.97;1.63;;;13.40;98.00;;;;;;5031786;28;20469;-69
2023/08/07 02:47:13;;;;;;;2.50;1.97;;;13.40;98.00;;;;;;5032161;28;20532;-69
2023/08/07 02:49:40;;;;;;;4.80;1.80;;;13.40;98.00;;;;;;5030832;28;20486;-69
2023/08/07 02:52:08;;;;;;;2.50;1.70;;;13.40;98.00;;;;;;5031683;28;20867;-69
2023/08/07 02:54:35;;;;;;;2.37;1.60;;;13.40;98.00;;;;;;5031635;28;20512;-69
2023/08/07 02:57:02;;;;;;;2.93;2.27;;;13.30;98.00;;;;;;5031424;28;20870;-69
2023/08/07 02:59:29;;;;;;;6.70;2.30;;;13.40;98.00;;;;;;5031657;28;20454;-67
2023/08/07 03:01:57;;;;;;;3.30;2.17;;;13.40;98.00;;;;;;5031935;28;20446;-67
2023/08/07 03:04:26;;;;;;;2.57;1.73;;;13.30;98.00;;;;;;5032140;28;21112;-67
2023/08/07 03:06:57;;;;;;;3.17;2.00;;;13.30;98.00;;;;;;5032427;28;20456;-67
2023/08/07 03:09:31;;;;;;;2.47;1.80;;;13.20;98.00;;;;;;5032156;28;20488;-67
2023/08/07 03:12:03;;;;;;;2.00;1.67;;;13.30;98.00;;;;;;5032358;28;20461;-66
2023/08/07 03:14:30;;;;;;;4.00;2.13;;;13.30;98.00;;;;;;5031892;28;20460;-67
2023/08/07 03:17:04;;;;;;;2.63;1.80;;;13.30;98.00;;;;;;5031671;28;20715;-67
2023/08/07 03:19:32;;;;;;;2.80;1.67;;;13.20;98.00;;;;;;5031598;28;20464;-66
2023/08/07 03:22:05;;;;;;;2.53;1.73;;;13.20;98.00;;;;;;5023577;28;20471;-66
2023/08/07 03:24:40;;;;;;;4.67;2.13;;;13.20;98.00;;;;;;5031968;28;20469;-66
2023/08/07 03:27:07;;;;;;;1.87;1.70;;;13.20;98.00;;;;;;5013555;28;20462;-66
2023/08/07 03:29:35;;;;;;;2.40;1.80;;;13.20;98.00;;;;;;5031287;28;20862;-67
2023/08/07 03:32:02;;;;;;;5.10;1.80;;;13.20;98.00;;;;;;5031389;28;20500;-67
2023/08/07 03:34:32;;;;;;;2.50;1.60;;;13.10;98.00;;;;;;5031389;28;20457;-66
2023/08/07 03:37:00;;;;;;;10.50;2.20;;;13.20;98.00;;;;;;5031067;28;20465;-66
2023/08/07 03:39:30;;;;;;;1.93;1.40;;;13.20;98.00;;;;;;5031242;28;20859;-66
2023/08/07 03:41:57;;;;;;;5.63;1.90;;;13.20;98.00;;;;;;5030802;28;20514;-66
2023/08/07 03:44:24;;;;;;;3.50;1.83;;;13.20;98.00;;;;;;5030834;28;20986;-66
2023/08/07 03:46:52;;;;;;;2.30;1.60;;;13.20;98.00;;;;;;5031034;28;20448;-66
2023/08/07 03:49:19;;;;;;;3.50;1.70;;;13.30;98.00;;;;;;5013407;28;20492;-66
2023/08/07 03:51:47;;;;;;;1.80;1.40;;;13.20;98.00;;;;;;5031048;28;21024;-66
2023/08/07 03:54:14;;;;;;;2.83;1.87;;;13.30;98.00;;;;;;5031072;28;20461;-67
2023/08/07 03:56:42;;;;;;;2.53;1.60;;;13.40;98.00;;;;;;5030825;28;20510;-66
2023/08/07 03:59:09;;;;;;;4.33;1.93;;;13.40;98.00;;;;;;5013112;28;20454;-66
2023/08/07 04:01:36;;;;;;;1.87;1.50;;;13.30;98.00;;;;;;5030890;28;20459;-66
2023/08/07 04:04:04;;;;;;;2.60;1.70;;;13.30;98.00;;;;;;5030861;28;20458;-66
2023/08/07 04:06:31;;;;;;;3.50;1.77;;;13.30;98.00;;;;;;5013711;28;20457;-66
2023/08/07 04:09:00;;;;;;;3.07;1.57;;;13.30;98.00;;;;;;5030172;28;20865;-68
2023/08/07 04:11:27;;;;;;;3.60;1.90;;;13.20;98.00;;;;;;5030833;28;20504;-69
2023/08/07 04:13:54;;;;;;;2.80;1.70;;;13.40;98.00;;;;;;5013319;28;20880;-69
2023/08/07 04:16:21;;;;;;;9.53;1.90;;;13.40;98.00;;;;;;5030948;28;20526;-69
2023/08/07 04:18:48;;;;;;;5.87;2.07;;;13.40;98.00;;;;;;5030673;28;20489;-69
2023/08/07 04:21:15;;;;;;;2.10;1.53;;;13.50;98.00;;;;;;5030919;28;20531;-69
2023/08/07 04:23:42;;;;;;;3.20;1.77;;;13.40;98.00;;;;;;5030660;28;20450;-69
2023/08/07 04:26:11;;;;;;;4.13;2.00;;;13.40;98.00;;;;;;5030758;28;20456;-69
2023/08/07 04:28:38;;;;;;;1.83;1.60;;;13.40;98.00;;;;;;5030513;28;20456;-69
2023/08/07 04:31:05;;;;;;;4.17;1.60;;;13.40;98.00;;;;;;5030603;28;20496;-69
2023/08/07 04:33:36;;;;;;;1.97;1.63;;;13.40;98.00;;;;;;5030854;28;20456;-69
2023/08/07 04:36:04;;;;;;;5.80;1.70;;;13.30;98.00;;;;;;5024385;28;20795;-69
2023/08/07 04:38:32;;;;;;;3.17;1.83;;;13.40;98.00;;;;;;5034185;28;20458;-68
2023/08/07 04:40:59;;;;;;;4.27;1.80;;;13.40;98.00;;;;;;5009042;28;20461;-69
2023/08/07 04:43:28;;;;;;;4.17;1.87;;;13.40;98.00;;;;;;5035392;28;20455;-69
2023/08/07 04:45:55;;;;;;;2.77;1.60;;;13.30;98.00;;;;;;5034846;28;20489;-69
2023/08/07 04:48:25;;;;;;;5.67;2.07;;;13.40;98.00;;;;;;5034352;28;20997;-69
2023/08/07 04:50:52;;;;;;;1.93;1.67;;;13.40;98.00;;;;;;5034222;28;20496;-69
2023/08/07 04:53:19;;;;;;;7.00;1.70;;;13.40;98.00;;;;;;5034159;28;20454;-69
2023/08/07 04:55:47;;;;;;;1.67;1.50;;;13.50;98.00;;;;;;5034143;28;20791;-69
2023/08/07 04:58:14;;;;;;;2.23;1.60;;;13.50;98.00;;;;;;5016569;28;20467;-69
2023/08/07 05:00:42;;;;;;;2.57;1.70;;;13.60;98.00;;;;;;5034101;28;20732;-69
2023/08/07 05:03:09;;;;;;;2.37;1.80;;;13.50;98.00;;;;;;5033734;28;20472;-69
2023/08/07 05:05:37;;;;;;;2.97;2.00;;;13.50;98.00;;;;;;5034344;28;20460;-69
2023/08/07 05:08:05;;;;;;;2.83;1.70;;;13.60;98.00;;;;;;5033993;28;20964;-69
2023/08/07 05:10:32;;;;;;;2.20;1.60;;;13.60;98.00;;;;;;5033834;28;20499;-69
2023/08/07 05:12:59;;;;;;;2.00;1.60;;;13.60;98.00;;;;;;5033743;28;21009;-69
2023/08/07 05:15:28;;;;;;;2.47;1.70;;;13.60;98.00;;;;;;5033820;28;20480;-69
2023/08/07 05:17:57;;;;;;;6.03;1.80;;;13.60;98.00;;;;;;5033699;28;20801;-69
2023/08/07 05:20:24;;;;;;;2.40;1.50;;;13.50;98.00;;;;;;5033591;28;20502;-69
2023/08/07 05:22:51;;;;;;;3.23;1.93;;;13.60;98.00;;;;;;5033424;28;20488;-69
2023/08/07 05:25:18;;;;;;;2.43;1.60;;;13.70;98.00;;;;;;5033877;28;20450;-69
2023/08/07 05:27:46;;;;;;;2.90;1.80;;;13.70;98.00;;;;;;5015921;28;20455;-69
2023/08/07 05:30:15;;;;;;;2.80;1.70;;;13.60;98.00;;;;;;5033361;28;20599;-69
2023/08/07 05:32:42;;;;;;;2.30;1.80;;;13.60;98.00;;;;;;5033354;28;20563;-69
2023/08/07 05:35:11;;;;;;;2.50;1.70;;;13.60;98.00;;;;;;5033216;28;20454;-69
2023/08/07 05:37:38;;;;;;;1.93;1.60;;;13.60;98.00;;;;;;5033286;28;20966;-69
2023/08/07 05:40:07;;;;;;;2.70;1.77;;;13.70;98.00;;;;;;5033338;28;20456;-69
2023/08/07 05:42:34;;;;;;;2.73;1.77;;;13.60;98.00;;;;;;5033253;28;20525;-69
2023/08/07 05:45:01;;;;;;;2.37;1.80;;;13.60;98.00;;;;;;5033175;28;20456;-67
2023/08/07 05:47:29;;;;;;;3.70;2.00;;;13.60;98.00;;;;;;5033183;28;20451;-68
2023/08/07 05:49:56;;;;;;;6.83;1.67;;;13.60;98.00;;;;;;5029908;28;20537;-67
2023/08/07 05:52:24;;;;;;;4.50;2.03;;;13.70;98.00;;;;;;5033285;28;20464;-67
2023/08/07 05:54:52;;;;;;;3.50;1.77;;;13.70;98.00;;;;;;5015444;28;20460;-73
2023/08/07 05:57:19;;;;;;;5.67;1.80;;;13.70;98.00;;;;;;5019844;28;20467;-74
2023/08/07 05:59:46;;;;;;;3.57;1.90;;;13.70;98.00;;;;;;5032913;28;20981;-73
2023/08/07 06:02:14;;;;;;;4.90;1.87;;;13.80;98.00;;;;;;5032777;28;20455;-75
2023/08/07 06:04:41;;;;;;;2.20;1.90;;;13.90;98.00;;;;;;5032751;28;20453;-75
2023/08/07 06:07:08;;;;;;;1.90;1.40;;;14.00;98.00;;;;;;5032689;28;20452;-74
2023/08/07 06:09:44;;;;;;;2.93;1.70;;;14.00;98.00;;;;;;5032526;28;20453;-75
2023/08/07 06:12:11;;;;;;;1.83;1.60;;;14.10;98.00;;;;;;5032901;28;20483;-76
2023/08/07 06:14:38;;;;;;;2.17;1.70;;;14.20;98.00;;;;;;5015143;28;20455;-74
2023/08/07 06:17:07;;;;;;;4.30;1.90;;;14.20;98.00;;;;;;5032589;28;20975;-75
2023/08/07 06:19:35;;;;;;;2.97;1.80;;;14.30;98.00;;;;;;5032468;28;20459;-73
2023/08/07 06:22:02;;;;;;;2.40;1.70;;;14.40;98.00;;;;;;5032404;28;20456;-76
2023/08/07 06:24:31;;;;;;;3.30;1.97;;;14.30;98.00;;;;;;5032791;28;20456;-76
2023/08/07 06:27:00;;;;;;;2.73;2.00;;;14.50;98.00;;;;;;5032655;28;20523;-76
2023/08/07 06:29:27;;;;;;;2.70;1.73;;;14.50;98.00;;;;;;5032413;28;20447;-76
2023/08/07 06:31:55;;;;;;;2.63;1.70;;;14.50;98.00;;;;;;5032383;28;20457;-74
2023/08/07 06:34:22;;;;;;;2.20;1.70;;;14.60;98.00;;;;;;5032124;28;20468;-74
2023/08/07 06:36:49;;;;;;;2.63;1.70;;;14.70;98.00;;;;;;5032045;28;20526;-76
2023/08/07 06:39:17;;;;;;;2.50;1.80;;;14.80;98.00;;;;;;5032209;28;20456;-74
2023/08/07 06:41:44;;;;;;;1.67;1.60;;;14.70;98.00;;;;;;5014478;28;20464;-73
2023/08/07 06:44:13;;;;;;;1.60;1.43;;;14.60;98.00;;;;;;5032023;28;20464;-74
2023/08/07 06:46:40;;;;;;;2.77;1.80;;;14.60;98.00;;;;;;5032008;28;20458;-73
2023/08/07 06:49:07;;;;;;;2.00;1.70;;;14.50;98.00;;;;;;5031822;28;20457;-76
2023/08/07 06:51:34;;;;;;;2.27;1.60;;;14.50;98.00;;;;;;5032068;28;20497;-75
2023/08/07 06:54:01;;;;;;;2.30;1.83;;;14.50;98.00;;;;;;5031877;28;20458;-73
2023/08/07 06:56:28;;;;;;;2.03;1.60;;;14.50;98.00;;;;;;5031698;28;20481;-74
2023/08/07 06:58:56;;;;;;;4.40;1.80;;;14.60;98.00;;;;;;5014306;28;20487;-75
2023/08/07 07:01:25;;;;;;;2.87;1.80;;;14.60;98.00;;;;;;5030747;28;20451;-72
2023/08/07 07:03:53;;;;;;;7.20;1.90;;;14.80;98.00;;;;;;5031398;28;20547;-73
2023/08/07 07:06:20;;;;;;;2.73;1.90;;;14.90;98.00;;;;;;5031551;28;20539;-74
2023/08/07 07:08:47;;;;;;;1.80;1.43;;;15.00;98.00;;;;;;5031672;28;20447;-76
2023/08/07 07:11:16;;;;;;;2.17;1.67;;;15.10;98.00;;;;;;5031615;28;20495;-76
2023/08/07 07:13:49;;;;;;;1.87;1.70;;;15.10;98.00;;;;;;5031194;28;20483;-73
2023/08/07 07:16:16;;;;;;;5.53;1.90;;;15.10;98.00;;;;;;5030357;28;20452;-73
2023/08/07 07:18:46;;;;;;;2.70;2.00;;;15.20;98.00;;;;;;5031105;28;20461;-73
2023/08/07 07:21:13;;;;;;;1.97;1.50;;;15.20;98.00;;;;;;5013379;28;20487;-76
2023/08/07 07:23:40;;;;;;;2.53;1.70;;;15.10;98.00;;;;;;5030948;28;20457;-73
2023/08/07 07:26:07;;;;;;;2.23;1.53;;;15.10;98.00;;;;;;5031255;28;20467;-76
2023/08/07 07:28:34;;;;;;;2.60;1.80;;;15.00;98.00;;;;;;5030857;28;20506;-76
2023/08/07 07:31:03;;;;;;;4.80;1.60;;;15.10;98.00;;;;;;5031062;28;20485;-73
2023/08/07 07:33:31;;;;;;;3.10;1.83;;;15.20;98.00;;;;;;5030841;28;20960;-75
2023/08/07 07:36:01;;;;;;;2.10;1.60;;;15.20;98.00;;;;;;5027786;28;20456;-74
2023/08/07 07:38:27;;;;;;;2.13;1.50;;;15.30;98.00;;;;;;5030926;28;20539;-75
2023/08/07 07:40:56;;;;;;;2.17;1.67;;;15.50;98.00;;;;;;5031295;28;20465;-67
2023/08/07 07:43:23;;;;;;;6.30;2.27;;;15.60;98.00;;;;;;5031222;28;20458;-74
2023/08/07 07:45:50;;;;;;;8.17;1.70;;;15.80;98.00;;;;;;5020304;28;20457;-74
2023/08/07 07:48:17;;;;;;;2.17;1.50;;;15.90;98.00;;;;;;5031348;28;20454;-75
2023/08/07 07:50:45;;;;;;;2.37;1.57;;;15.80;98.00;;;;;;4997079;28;20906;-75
2023/08/07 07:53:15;;;;;;;2.70;1.70;;;15.80;98.00;;;;;;5031088;28;20462;-75
2023/08/07 07:55:42;;;;;;;1.97;1.40;;;15.70;98.00;;;;;;5012978;28;20460;-74
2023/08/07 07:58:09;;;;;;;3.23;1.73;;;15.60;98.00;;;;;;5030856;28;20466;-75
2023/08/07 08:00:37;;;;;;;3.53;1.60;;;15.50;98.00;;;;;;5031057;28;20453;-74
2023/08/07 08:03:05;;;;;;;2.03;1.60;;;15.40;98.00;;;;;;5030839;28;20457;-75
2023/08/07 08:05:34;;;;;;;4.17;1.90;;;15.30;98.00;;;;;;5030773;28;20451;-73
2023/08/07 08:08:02;;;;;;;2.87;1.67;;;15.30;98.00;;;;;;5030718;28;20989;-75
2023/08/07 08:10:30;;;;;;;2.77;1.80;;;15.20;98.00;;;;;;5030780;28;20484;-75
2023/08/07 08:12:58;;;;;;;4.23;2.00;;;15.30;98.00;;;;;;5015352;28;20787;-75
2023/08/07 08:15:25;;;;;;;2.63;1.70;;;15.30;98.00;;;;;;5034830;28;20845;-75
2023/08/07 08:17:52;;;;;;;2.83;2.10;;;15.30;98.00;;;;;;5034712;28;20540;-74
2023/08/07 08:20:19;;;;;;;2.10;1.60;;;15.30;98.00;;;;;;5034564;28;20973;-75
2023/08/07 08:22:47;;;;;;;2.07;1.80;;;15.40;98.00;;;;;;5034504;28;20464;-75
2023/08/07 08:25:15;;;;;;;10.03;1.80;;;15.40;98.00;;;;;;5034796;28;20464;-74
2023/08/07 08:27:43;;;;;;;5.03;2.23;;;15.50;98.00;;;;;;5034662;28;20468;-74
2023/08/07 08:30:11;;;;;;;1.97;1.57;;;15.50;98.00;;;;;;5034216;28;20818;-74
2023/08/07 08:32:40;;;;;;;2.90;1.83;;;15.50;98.00;;;;;;5034402;28;20448;-73
2023/08/07 08:35:07;;;;;;;2.50;1.80;;;15.50;98.00;;;;;;5034324;28;20503;-73
2023/08/07 08:37:34;;;;;;;1.93;1.60;;;15.60;98.00;;;;;;5034310;28;20467;-72
2023/08/07 08:40:02;;;;;;;2.67;1.80;;;15.50;98.00;;;;;;5034891;28;20535;-73
2023/08/07 08:42:29;;;;;;;2.83;1.80;;;15.50;98.00;;;;;;5035163;28;20478;-74
2023/08/07 08:44:59;;;;;;;2.33;1.70;;;15.50;98.00;;;;;;5033022;28;20813;-74
2023/08/07 08:47:27;;;;;;;2.33;1.60;;;15.40;98.00;;;;;;5032499;28;20462;-73
2023/08/07 08:50:01;;;;;;;3.90;1.90;;;15.40;98.00;;;;;;5033120;28;20489;-73
2023/08/07 08:52:29;;;;;;;2.77;1.80;;;15.40;98.00;;;;;;5033052;28;20496;-72
2023/08/07 08:54:58;;;;;;;2.90;1.60;;;15.40;98.00;;;;;;5034020;28;20485;-74
2023/08/07 08:57:27;;;;;;;1.70;1.50;;;15.50;98.00;;;;;;5033545;28;20471;-75
2023/08/07 08:59:54;;;;;;;2.60;1.90;;;15.60;98.00;;;;;;5033995;28;20955;-74
2023/08/07 09:02:22;;;;;;;2.43;1.70;;;15.70;98.00;;;;;;5033878;28;20474;-74
2023/08/07 09:04:49;;;;;;;2.00;1.57;;;15.80;98.00;;;;;;5033539;28;20507;-73
2023/08/07 09:07:18;;;;;;;3.90;1.80;;;15.90;98.00;;;;;;5033852;28;20459;-75
2023/08/07 09:09:46;;;;;;;1.97;1.50;;;16.00;98.00;;;;;;5033534;28;20452;-74
2023/08/07 09:12:21;;;;;;;2.83;1.60;;;16.20;98.00;;;;;;5033894;28;20563;-74
2023/08/07 09:14:54;;;;;;;2.27;1.73;;;16.30;98.00;;;;;;5033289;28;20484;-75
2023/08/07 09:17:28;;;;;;;2.97;2.03;;;16.50;98.00;;;;;;5033701;28;20544;-74
2023/08/07 09:19:55;;;;;;;2.90;1.83;;;16.80;98.00;;;;;;5033851;28;20458;-74
2023/08/07 09:22:22;;;;;;;2.57;1.67;;;16.90;98.00;;;;;;5033514;28;20473;-71
2023/08/07 09:24:50;;;;;;;2.20;1.43;;;16.90;98.00;;;;;;5032084;28;20457;-70
2023/08/07 09:27:17;;;;;;;2.00;1.50;;;16.70;98.00;;;;;;5033537;28;20478;-70
2023/08/07 09:29:47;;;;;;;2.40;1.60;;;16.70;98.00;;;;;;5033304;28;20857;-73
2023/08/07 09:32:14;;;;;;;1.73;1.50;;;16.80;98.00;;;;;;5033058;28;20492;-70
2023/08/07 09:34:43;;;;;;;1.90;1.77;;;16.80;98.00;;;;;;5032695;28;20944;-71
2023/08/07 09:37:10;;;;;;;2.43;1.70;;;16.80;98.00;;;;;;5033539;28;20867;-70
2023/08/07 09:39:45;;;;;;;1.73;1.60;;;16.70;98.00;;;;;;5030490;28;20458;-70
2023/08/07 09:42:15;;;;;;;1.83;1.60;;;16.80;98.00;;;;;;5033077;28;20839;-70
2023/08/07 09:44:42;;;;;;;1.87;1.57;;;16.80;98.00;;;;;;5032839;28;20547;-70
2023/08/07 09:47:14;;;;;;;1.80;1.50;;;16.90;98.00;;;;;;5032815;28;20545;-72
2023/08/07 09:49:43;;;;;;;2.20;1.60;;;16.90;98.00;;;;;;5032826;28;20505;-73
2023/08/07 09:52:14;;;;;;;4.53;1.60;;;16.80;98.00;;;;;;5032953;28;20850;-73
2023/08/07 09:54:42;;;;;;;2.10;1.70;;;16.80;98.00;;;;;;5032821;28;20458;-75
2023/08/07 09:57:09;;;;;;;2.63;1.80;;;16.90;98.00;;;;;;5033006;28;20450;-69
2023/08/07 09:59:38;;;;;;;2.17;1.70;;;17.00;98.00;;;;;;5033440;28;20503;-71
2023/08/07 10:02:06;;;;;;;3.10;1.57;;;17.10;98.00;;;;;;5033544;28;20454;-69
2023/08/07 10:04:35;;;;;;;1.70;1.50;;;17.20;98.00;;;;;;5015813;28;20451;-68
2023/08/07 10:07:05;;;;;;;2.30;1.50;;;17.30;98.00;;;;;;5033308;28;20787;-68
2023/08/07 10:09:34;;;;;;;2.80;1.67;;;17.40;98.00;;;;;;5015361;28;20459;-69
2023/08/07 10:12:02;;;;;;;3.27;1.90;;;17.70;98.00;;;;;;5032566;28;21000;-68
2023/08/07 10:14:29;;;;;;;5.87;1.80;;;17.80;98.00;;;;;;5032672;28;20447;-69
2023/08/07 10:16:57;;;;;;;2.33;1.80;;;17.80;98.00;;;;;;5032346;28;20455;-69
2023/08/07 10:19:24;;;;;;;2.40;1.70;;;17.60;98.00;;;;;;5032690;28;20454;-68
2023/08/07 10:21:53;;;;;;;2.33;1.73;;;17.60;98.00;;;;;;5032750;28;20458;-69
2023/08/07 10:24:24;;;;;;;4.00;1.87;;;17.80;98.00;;;;;;5032352;28;20454;-69
2023/08/07 10:26:53;;;;;;;2.17;1.63;;;17.80;98.00;;;;;;5031406;28;20458;-68
2023/08/07 10:29:23;;;;;;;3.60;1.77;;;17.90;98.00;;;;;;5032617;28;20451;-69
2023/08/07 10:31:51;;;;;;;1.93;1.67;;;17.80;98.00;;;;;;5032241;28;20491;-69
2023/08/07 10:34:19;;;;;;;4.20;1.80;;;17.70;98.00;;;;;;5032529;28;20453;-69
2023/08/07 10:36:46;;;;;;;2.10;1.80;;;17.50;98.00;;;;;;5031171;28;20944;-69
2023/08/07 10:39:16;;;;;;;2.40;1.70;;;17.50;98.00;;;;;;5032240;28;20454;-68
2023/08/07 10:41:48;;;;;;;1.70;1.50;;;17.70;98.00;;;;;;5032459;28;20441;-69
2023/08/07 10:44:22;;;;;;;3.43;1.80;;;18.00;98.00;;;;;;5032284;28;20809;-68
2023/08/07 10:46:50;;;;;;;3.10;1.93;;;18.10;98.00;;;;;;5032111;28;20821;-69
2023/08/07 10:49:35;;;;;;;6.50;1.80;;;18.00;98.00;;;;;;5031964;28;20455;-69
2023/08/07 10:52:10;;;;;;;2.97;1.90;;;17.80;98.00;;;;;;5031825;28;20486;-69
2023/08/07 10:54:43;;;;;;;2.40;1.80;;;17.70;98.00;;;;;;5031913;28;20497;-69
2023/08/07 10:57:14;;;;;;;2.33;1.50;;;17.50;98.00;;;;;;5031735;28;20535;-69
2023/08/07 10:59:49;;;;;;;2.70;2.00;;;17.60;98.00;;;;;;5031790;28;20487;-68
2023/08/07 11:02:25;;;;;;;2.20;1.70;;;17.50;98.00;;;;;;5030645;28;20454;-69
2023/08/07 11:04:53;;;;;;;2.97;2.07;;;17.50;98.00;;;;;;5030257;28;20450;-69
2023/08/07 11:07:25;;;;;;;2.23;1.80;;;17.70;98.00;;;;;;5031763;28;20451;-69
2023/08/07 11:09:52;;;;;;;2.53;1.90;;;18.00;98.00;;;;;;5030332;28;20862;-69
2023/08/07 11:12:22;;;;;;;3.20;2.10;;;18.10;98.00;;;;;;5031627;28;21000;-69
2023/08/07 11:14:49;;;;;;;2.40;1.73;;;18.30;98.00;;;;;;5031465;28;20477;-69
2023/08/07 11:17:17;;;;;;;1.90;1.70;;;18.10;98.00;;;;;;5031504;28;20458;-69
2023/08/07 11:19:47;;;;;;;3.80;1.87;;;17.80;98.00;;;;;;5031341;28;20967;-69
2023/08/07 11:22:17;;;;;;;3.43;1.80;;;17.60;98.00;;;;;;5031118;28;20521;-69
2023/08/07 11:24:44;;;;;;;3.50;1.87;;;17.60;98.00;;;;;;5031485;28;20501;-66
2023/08/07 11:27:11;;;;;;;3.00;1.70;;;17.50;98.00;;;;;;5031339;28;20459;-66
2023/08/07 11:29:40;;;;;;;3.20;1.80;;;17.30;98.00;;;;;;5031300;28;20508;-66
2023/08/07 11:32:09;;;;;;;2.03;1.73;;;17.10;98.00;;;;;;5030115;28;20545;-66
2023/08/07 11:34:36;;;;;;;2.50;1.80;;;17.00;98.00;;;;;;5030115;28;20458;-66
2023/08/07 11:37:04;;;;;;;2.30;1.70;;;16.90;98.00;;;;;;5031423;28;20451;-66
2023/08/07 11:39:31;;;;;;;4.53;2.00;;;16.90;98.00;;;;;;5031509;28;20992;-66
2023/08/07 11:41:58;;;;;;;3.33;1.80;;;16.90;98.00;;;;;;5031206;28;20454;-66
2023/08/07 11:44:25;;;;;;;4.03;1.80;;;16.90;98.00;;;;;;5030763;28;20460;-66
2023/08/07 11:46:54;;;;;;;2.27;1.80;;;16.80;98.00;;;;;;5011142;28;20459;-66
2023/08/07 11:49:21;;;;;;;2.10;1.70;;;16.80;98.00;;;;;;5011164;28;20459;-67
2023/08/07 11:51:49;;;;;;;2.37;1.70;;;16.80;98.00;;;;;;5011468;28;20855;-69
2023/08/07 11:54:18;;;;;;;4.23;2.00;;;16.80;98.00;;;;;;5019367;28;20838;-69
2023/08/07 11:56:49;;;;;;;2.60;1.87;;;16.90;98.00;;;;;;5030914;28;20465;-67
2023/08/07 11:59:18;;;;;;;1.73;1.60;;;17.00;98.00;;;;;;5031098;28;20477;-67
2023/08/07 12:01:47;;;;;;;2.43;1.80;;;17.10;98.00;;;;;;5029631;28;20455;-66
2023/08/07 12:04:18;;;;;;;4.00;2.07;;;17.40;98.00;;;;;;5030906;28;20450;-67
2023/08/07 12:06:54;;;;;;;3.33;2.23;;;17.50;98.00;;;;;;5031056;28;20463;-67
2023/08/07 12:09:21;;;;;;;2.37;1.80;;;17.50;98.00;;;;;;5031145;28;20519;-67
2023/08/07 12:11:48;;;;;;;2.70;1.97;;;17.60;98.00;;;;;;5031057;28;20488;-66
2023/08/07 12:14:18;;;;;;;2.67;1.90;;;17.60;98.00;;;;;;5031581;28;20877;-67
2023/08/07 12:16:46;;;;;;;3.70;2.23;;;17.60;98.00;;;;;;5031709;28;20458;-67
2023/08/07 12:19:16;;;;;;;2.67;1.80;;;17.50;98.00;;;;;;5031646;28;20509;-69
2023/08/07 12:21:43;;;;;;;3.50;1.90;;;17.40;98.00;;;;;;5031800;28;20450;-67
2023/08/07 12:24:10;;;;;;;2.40;1.90;;;17.20;98.00;;;;;;5031508;28;20447;-67
2023/08/07 12:26:38;;;;;;;3.40;2.23;;;17.00;98.00;;;;;;5031095;28;20489;-67
2023/08/07 12:29:05;;;;;;;3.10;2.27;;;16.90;98.00;;;;;;5030946;28;20821;-67
2023/08/07 12:31:32;;;;;;;3.60;2.10;;;16.80;98.00;;;;;;5031181;28;20497;-67
2023/08/07 12:33:59;;;;;;;3.00;1.93;;;16.90;98.00;;;;;;5030935;28;20458;-66
2023/08/07 12:36:27;;;;;;;3.37;2.10;;;17.10;98.00;;;;;;5029868;28;20455;-66
2023/08/07 12:38:55;;;;;;;3.10;2.10;;;17.40;98.00;;;;;;5030490;28;20455;-67
2023/08/07 12:41:22;;;;;;;4.30;1.90;;;17.60;98.00;;;;;;5030971;28;20462;-66
2023/08/07 12:43:49;;;;;;;2.13;1.97;;;17.70;98.00;;;;;;5029330;28;20850;-67
2023/08/07 12:46:17;;;;;;;3.37;2.30;;;17.80;98.00;;;;;;5030612;28;20454;-67
2023/08/07 12:48:44;;;;;;;2.70;1.97;;;17.80;98.00;;;;;;5030890;28;20459;-68
2023/08/07 12:51:12;;;;;;;2.37;1.80;;;18.10;98.00;;;;;;5031046;28;20458;-69